createdAt,value
2018-07-16T00:03:47.290Z,18.60
2018-07-16T00:13:50.438Z,18.50
2018-07-16T00:23:53.498Z,18.40
2018-07-16T00:33:56.572Z,18.30
2018-07-16T00:43:59.719Z,18.20
2018-07-16T00:54:03.034Z,18.10
2018-07-16T01:04:06.516Z,18.00
2018-07-16T01:14:09.550Z,17.70
2018-07-16T01:24:12.570Z,17.60
2018-07-16T01:34:15.597Z,17.60
2018-07-16T01:44:25.530Z,17.50
2018-07-16T01:54:28.549Z,17.50
2018-07-16T02:04:36.844Z,17.40
2018-07-16T02:14:39.886Z,17.30
2018-07-16T02:24:43.109Z,17.30
2018-07-16T02:34:46.192Z,17.20
2018-07-16T02:44:49.303Z,17.10
2018-07-16T02:54:53.375Z,17.00
2018-07-16T03:04:56.787Z,16.90
2018-07-16T03:14:59.825Z,16.80
2018-07-16T03:25:02.956Z,16.70
2018-07-16T03:35:06.931Z,16.70
2018-07-16T03:45:09.979Z,16.60
2018-07-16T03:55:13.052Z,16.40
2018-07-16T04:05:16.097Z,16.30
2018-07-16T04:15:19.145Z,16.30
2018-07-16T04:25:26.016Z,16.30
2018-07-16T04:35:29.174Z,16.30
2018-07-16T04:45:50.717Z,16.40
2018-07-16T04:55:53.733Z,16.50
2018-07-16T05:05:56.811Z,16.60
2018-07-16T05:15:59.963Z,16.60
2018-07-16T05:26:03.187Z,16.70
2018-07-16T05:36:07.739Z,16.90
2018-07-16T05:56:34.927Z,17.30
2018-07-16T06:06:37.982Z,17.60
2018-07-16T06:16:41.046Z,17.90
2018-07-16T06:26:45.141Z,18.10
2018-07-16T06:36:50.389Z,18.40
2018-07-16T06:46:53.455Z,18.70
2018-07-16T06:56:56.543Z,18.90
2018-07-16T07:06:59.599Z,19.10
2018-07-16T07:17:02.655Z,19.30
2018-07-16T07:27:06.193Z,19.50
2018-07-16T07:37:09.314Z,19.80
2018-07-16T07:47:12.461Z,20.00
2018-07-16T07:57:15.503Z,20.30
2018-07-16T08:07:18.558Z,20.60
2018-07-16T08:17:21.642Z,20.80
2018-07-16T08:27:24.702Z,21.10
2018-07-16T08:37:27.757Z,21.40
2018-07-16T08:47:30.830Z,21.70
2018-07-16T08:57:33.883Z,22.00
2018-07-16T09:07:36.927Z,22.40
2018-07-16T09:17:39.959Z,22.70
2018-07-16T09:27:43.002Z,23.00
2018-07-16T09:37:46.030Z,23.70
2018-07-16T09:47:49.103Z,24.50
2018-07-16T09:57:52.127Z,25.20
2018-07-16T10:07:55.236Z,25.80
2018-07-16T10:17:58.302Z,26.40
2018-07-16T10:28:01.451Z,27.10
2018-07-16T10:38:04.535Z,27.60
2018-07-16T10:48:07.588Z,27.50
2018-07-16T10:58:12.695Z,28.20
2018-07-16T11:08:15.789Z,28.70
2018-07-16T11:18:18.843Z,29.70
2018-07-16T11:28:22.030Z,29.50
2018-07-16T11:38:25.070Z,29.80
2018-07-16T11:48:28.137Z,30.20
2018-07-16T11:58:31.235Z,30.60
2018-07-16T12:08:34.298Z,31.30
2018-07-16T12:18:37.358Z,32.10
2018-07-16T12:28:40.416Z,31.50
2018-07-16T12:38:43.486Z,31.10
2018-07-16T12:48:46.552Z,31.90
2018-07-16T12:58:49.579Z,30.90
2018-07-16T13:08:54.139Z,30.00
2018-07-16T13:18:57.182Z,30.50
2018-07-16T13:29:00.281Z,30.70
2018-07-16T13:39:04.491Z,31.30
2018-07-16T13:49:07.531Z,32.00
2018-07-16T13:59:10.542Z,32.50
2018-07-16T14:09:13.579Z,32.40
2018-07-16T14:19:16.602Z,32.10
2018-07-16T14:29:19.646Z,32.70
2018-07-16T14:39:22.764Z,32.20
2018-07-16T14:49:25.732Z,32.40
2018-07-16T14:59:28.794Z,32.80
2018-07-16T15:09:32.849Z,32.80
2018-07-16T15:19:36.227Z,32.40
2018-07-16T15:29:39.351Z,31.20
2018-07-16T15:39:42.371Z,31.10
2018-07-16T15:49:45.851Z,31.40
2018-07-16T15:59:48.875Z,31.40
2018-07-16T16:09:51.908Z,31.30
2018-07-16T16:19:55.086Z,31.00
2018-07-16T16:29:58.123Z,31.00
2018-07-16T16:40:01.130Z,31.00
2018-07-16T16:50:04.554Z,31.00
2018-07-16T17:00:07.826Z,30.90
2018-07-16T17:10:10.847Z,30.20
2018-07-16T17:20:13.956Z,29.90
2018-07-16T17:30:16.998Z,29.90
2018-07-16T17:40:20.257Z,29.60
2018-07-16T17:50:23.316Z,29.10
2018-07-16T18:00:28.310Z,28.60
2018-07-16T18:10:31.644Z,28.20
2018-07-16T18:20:34.693Z,28.00
2018-07-16T18:30:37.986Z,27.70
2018-07-16T18:40:41.223Z,27.30
2018-07-16T18:50:44.407Z,26.70
2018-07-16T19:00:47.767Z,26.30
2018-07-16T19:10:50.866Z,26.10
2018-07-16T19:20:53.936Z,26.00
2018-07-16T19:30:58.190Z,25.80
2018-07-16T19:41:01.721Z,25.70
2018-07-16T19:51:04.899Z,25.60
2018-07-16T20:01:07.838Z,25.50
2018-07-16T20:11:12.639Z,25.20
2018-07-16T20:21:17.657Z,24.90
2018-07-16T20:31:21.664Z,24.70
2018-07-16T20:41:25.169Z,24.60
2018-07-16T20:51:28.290Z,24.40
2018-07-16T21:01:31.320Z,24.10
2018-07-16T21:11:34.430Z,24.00
2018-07-16T21:21:37.771Z,23.70
2018-07-16T21:31:40.829Z,23.50
2018-07-16T21:41:43.870Z,23.20
2018-07-16T21:51:46.899Z,23.10
2018-07-16T22:01:50.802Z,22.90
2018-07-16T22:11:53.863Z,22.70
2018-07-16T22:21:56.926Z,22.50
2018-07-16T22:31:59.974Z,22.20
2018-07-16T22:42:02.952Z,22.10
2018-07-16T22:52:05.990Z,21.90
2018-07-16T23:02:09.818Z,21.80
2018-07-16T23:12:12.820Z,21.60
2018-07-16T23:22:15.841Z,21.60
2018-07-16T23:32:18.867Z,21.40
2018-07-16T23:42:21.906Z,21.30
2018-07-16T23:52:24.929Z,21.10
